sensor_id;sensor_type;location;lat;lon;timestamp;pressure;altitude;pressure_sealevel;temperature;humidity
23953;BME280;12163;49.316;6.092;2023-05-03T00:01:40;100358.72;;;10.22;61.08
23953;BME280;12163;49.316;6.092;2023-05-03T00:04:08;100355.47;;;10.20;60.93
23953;BME280;12163;49.316;6.092;2023-05-03T00:06:35;100346.28;;;10.16;60.58
23953;BME280;12163;49.316;6.092;2023-05-03T00:09:02;100357.59;;;10.13;60.67
23953;BME280;12163;49.316;6.092;2023-05-03T00:11:28;100352.97;;;10.08;60.86
23953;BME280;12163;49.316;6.092;2023-05-03T00:13:55;100361.34;;;10.07;60.68
23953;BME280;12163;49.316;6.092;2023-05-03T00:16:21;100358.66;;;10.07;60.91
23953;BME280;12163;49.316;6.092;2023-05-03T00:18:48;100354.34;;;10.06;60.73
23953;BME280;12163;49.316;6.092;2023-05-03T00:21:15;100356.47;;;10.04;61.09
23953;BME280;12163;49.316;6.092;2023-05-03T00:23:41;100355.34;;;10.00;61.22
23953;BME280;12163;49.316;6.092;2023-05-03T00:26:08;100361.78;;;9.94;61.58
23953;BME280;12163;49.316;6.092;2023-05-03T00:28:35;100355.28;;;9.90;61.61
23953;BME280;12163;49.316;6.092;2023-05-03T00:31:08;100349.03;;;9.80;61.87
23953;BME280;12163;49.316;6.092;2023-05-03T00:33:38;100352.50;;;9.75;62.03
23953;BME280;12163;49.316;6.092;2023-05-03T00:36:13;100352.97;;;9.67;62.44
23953;BME280;12163;49.316;6.092;2023-05-03T00:38:41;100343.81;;;9.63;62.25
23953;BME280;12163;49.316;6.092;2023-05-03T00:41:10;100333.53;;;9.60;62.26
23953;BME280;12163;49.316;6.092;2023-05-03T00:43:38;100338.09;;;9.60;62.32
23953;BME280;12163;49.316;6.092;2023-05-03T00:46:06;100342.94;;;9.58;62.45
23953;BME280;12163;49.316;6.092;2023-05-03T00:48:47;100333.53;;;9.55;62.50
23953;BME280;12163;49.316;6.092;2023-05-03T00:51:14;100346.47;;;9.58;62.22
23953;BME280;12163;49.316;6.092;2023-05-03T00:53:42;100335.69;;;9.58;61.97
23953;BME280;12163;49.316;6.092;2023-05-03T00:56:09;100331.09;;;9.59;62.08
23953;BME280;12163;49.316;6.092;2023-05-03T00:58:37;100333.53;;;9.60;62.12
23953;BME280;12163;49.316;6.092;2023-05-03T01:01:06;100336.47;;;9.59;61.53
23953;BME280;12163;49.316;6.092;2023-05-03T01:03:33;100330.31;;;9.58;61.60
23953;BME280;12163;49.316;6.092;2023-05-03T01:08:39;100327.53;;;9.53;61.67
23953;BME280;12163;49.316;6.092;2023-05-03T01:11:16;100317.28;;;9.50;61.46
23953;BME280;12163;49.316;6.092;2023-05-03T01:16:28;100315.59;;;9.34;61.82
23953;BME280;12163;49.316;6.092;2023-05-03T01:18:57;100320.41;;;9.32;62.17
23953;BME280;12163;49.316;6.092;2023-05-03T01:21:27;100323.06;;;9.27;62.15
23953;BME280;12163;49.316;6.092;2023-05-03T01:24:10;100322.47;;;9.20;62.13
23953;BME280;12163;49.316;6.092;2023-05-03T01:26:38;100319.75;;;9.15;62.51
23953;BME280;12163;49.316;6.092;2023-05-03T01:29:05;100318.63;;;9.11;62.75
23953;BME280;12163;49.316;6.092;2023-05-03T01:31:43;100309.97;;;9.09;62.90
23953;BME280;12163;49.316;6.092;2023-05-03T01:34:24;100314.25;;;9.05;62.91
23953;BME280;12163;49.316;6.092;2023-05-03T01:36:57;100313.16;;;9.01;62.75
23953;BME280;12163;49.316;6.092;2023-05-03T01:39:26;100308.28;;;8.98;63.27
23953;BME280;12163;49.316;6.092;2023-05-03T01:41:55;100305.28;;;8.95;63.07
23953;BME280;12163;49.316;6.092;2023-05-03T01:44:23;100307.69;;;8.91;63.05
23953;BME280;12163;49.316;6.092;2023-05-03T01:46:51;100308.75;;;8.90;63.23
23953;BME280;12163;49.316;6.092;2023-05-03T01:49:17;100308.50;;;8.92;62.99
23953;BME280;12163;49.316;6.092;2023-05-03T01:51:44;100310.94;;;8.93;63.03
23953;BME280;12163;49.316;6.092;2023-05-03T01:54:11;100314.38;;;8.89;63.01
23953;BME280;12163;49.316;6.092;2023-05-03T01:56:37;100320.28;;;8.86;63.05
23953;BME280;12163;49.316;6.092;2023-05-03T01:59:04;100320.53;;;8.84;63.08
23953;BME280;12163;49.316;6.092;2023-05-03T02:01:30;100314.03;;;8.80;63.19
23953;BME280;12163;49.316;6.092;2023-05-03T02:03:57;100324.25;;;8.78;63.34
23953;BME280;12163;49.316;6.092;2023-05-03T02:06:24;100317.75;;;8.74;63.27
23953;BME280;12163;49.316;6.092;2023-05-03T02:08:52;100322.25;;;8.69;63.28
23953;BME280;12163;49.316;6.092;2023-05-03T02:11:19;100323.09;;;8.69;63.55
23953;BME280;12163;49.316;6.092;2023-05-03T02:13:48;100331.66;;;8.66;63.52
23953;BME280;12163;49.316;6.092;2023-05-03T02:16:19;100331.09;;;8.64;63.40
23953;BME280;12163;49.316;6.092;2023-05-03T02:18:46;100327.84;;;8.62;63.69
23953;BME280;12163;49.316;6.092;2023-05-03T02:21:13;100325.66;;;8.59;63.95
23953;BME280;12163;49.316;6.092;2023-05-03T02:23:39;100333.16;;;8.57;63.86
23953;BME280;12163;49.316;6.092;2023-05-03T02:26:06;100329.94;;;8.55;63.81
23953;BME280;12163;49.316;6.092;2023-05-03T02:28:33;100331.50;;;8.51;64.06
23953;BME280;12163;49.316;6.092;2023-05-03T02:31:00;100330.94;;;8.49;64.12
23953;BME280;12163;49.316;6.092;2023-05-03T02:33:27;100330.31;;;8.42;64.39
23953;BME280;12163;49.316;6.092;2023-05-03T02:35:53;100330.03;;;8.39;64.42
23953;BME280;12163;49.316;6.092;2023-05-03T02:38:20;100328.06;;;8.34;64.93
23953;BME280;12163;49.316;6.092;2023-05-03T02:40:46;100329.38;;;8.32;65.04
23953;BME280;12163;49.316;6.092;2023-05-03T02:43:13;100319.97;;;8.30;65.03
23953;BME280;12163;49.316;6.092;2023-05-03T02:45:42;100328.81;;;8.30;64.62
23953;BME280;12163;49.316;6.092;2023-05-03T02:48:08;100326.97;;;8.31;64.39
23953;BME280;12163;49.316;6.092;2023-05-03T02:50:36;100333.97;;;8.32;64.49
23953;BME280;12163;49.316;6.092;2023-05-03T02:53:02;100333.97;;;8.32;64.39
23953;BME280;12163;49.316;6.092;2023-05-03T02:55:29;100332.84;;;8.28;64.98
23953;BME280;12163;49.316;6.092;2023-05-03T02:57:56;100334.97;;;8.26;65.08
23953;BME280;12163;49.316;6.092;2023-05-03T03:00:23;100327.41;;;8.23;65.03
23953;BME280;12163;49.316;6.092;2023-05-03T03:02:50;100337.56;;;8.21;64.91
23953;BME280;12163;49.316;6.092;2023-05-03T03:05:17;100341.81;;;8.17;65.36
23953;BME280;12163;49.316;6.092;2023-05-03T03:07:43;100346.88;;;8.13;65.68
23953;BME280;12163;49.316;6.092;2023-05-03T03:10:10;100341.19;;;8.10;65.45
23953;BME280;12163;49.316;6.092;2023-05-03T03:12:37;100341.19;;;8.10;65.39
23953;BME280;12163;49.316;6.092;2023-05-03T03:15:04;100342.81;;;8.11;65.72
23953;BME280;12163;49.316;6.092;2023-05-03T03:17:31;100338.25;;;8.11;65.15
23953;BME280;12163;49.316;6.092;2023-05-03T03:19:58;100342.81;;;8.11;64.89
23953;BME280;12163;49.316;6.092;2023-05-03T03:22:24;100339.06;;;8.12;64.85
23953;BME280;12163;49.316;6.092;2023-05-03T03:24:52;100325.84;;;8.10;65.09
23953;BME280;12163;49.316;6.092;2023-05-03T03:27:19;100327.97;;;8.08;64.84
23953;BME280;12163;49.316;6.092;2023-05-03T03:29:46;100333.34;;;8.08;64.97
23953;BME280;12163;49.316;6.092;2023-05-03T03:32:13;100324.72;;;8.06;65.12
23953;BME280;12163;49.316;6.092;2023-05-03T03:34:40;100321.25;;;8.06;65.20
23953;BME280;12163;49.316;6.092;2023-05-03T03:37:07;100316.13;;;8.04;65.23
23953;BME280;12163;49.316;6.092;2023-05-03T03:39:33;100315.31;;;8.04;65.17
23953;BME280;12163;49.316;6.092;2023-05-03T03:42:00;100306.94;;;8.00;65.15
23953;BME280;12163;49.316;6.092;2023-05-03T03:44:28;100307.66;;;7.96;65.26
23953;BME280;12163;49.316;6.092;2023-05-03T03:46:54;100300.66;;;7.95;65.20
23953;BME280;12163;49.316;6.092;2023-05-03T03:49:21;100311.41;;;7.95;65.47
23953;BME280;12163;49.316;6.092;2023-05-03T03:51:48;100309.78;;;7.94;65.12
23953;BME280;12163;49.316;6.092;2023-05-03T03:54:14;100302.78;;;7.93;65.05
23953;BME280;12163;49.316;6.092;2023-05-03T03:56:41;100302.78;;;7.93;65.25
23953;BME280;12163;49.316;6.092;2023-05-03T03:59:08;100297.41;;;7.93;65.28
23953;BME280;12163;49.316;6.092;2023-05-03T04:01:34;100307.03;;;7.89;65.41
23953;BME280;12163;49.316;6.092;2023-05-03T04:04:01;100303.47;;;7.83;65.66
23953;BME280;12163;49.316;6.092;2023-05-03T04:06:28;100298.53;;;7.75;65.90
23953;BME280;12163;49.316;6.092;2023-05-03T04:08:54;100298.97;;;7.67;66.13
23953;BME280;12163;49.316;6.092;2023-05-03T04:11:21;100293.28;;;7.64;66.01
23953;BME280;12163;49.316;6.092;2023-05-03T04:13:47;100291.66;;;7.63;65.95
23953;BME280;12163;49.316;6.092;2023-05-03T04:16:14;100293.28;;;7.64;66.12
23953;BME280;12163;49.316;6.092;2023-05-03T04:18:42;100293.28;;;7.64;65.85
23953;BME280;12163;49.316;6.092;2023-05-03T04:21:08;100288.41;;;7.61;66.38
23953;BME280;12163;49.316;6.092;2023-05-03T04:23:35;100290.53;;;7.59;66.15
23953;BME280;12163;49.316;6.092;2023-05-03T04:26:02;100291.03;;;7.56;66.68
23953;BME280;12163;49.316;6.092;2023-05-03T04:28:30;100289.88;;;7.52;66.70
23953;BME280;12163;49.316;6.092;2023-05-03T04:30:57;100281.81;;;7.52;66.45
23953;BME280;12163;49.316;6.092;2023-05-03T04:33:24;100281.59;;;7.53;66.90
23953;BME280;12163;49.316;6.092;2023-05-03T04:35:51;100279.47;;;7.55;66.92
23953;BME280;12163;49.316;6.092;2023-05-03T04:38:18;100282.72;;;7.57;66.94
23953;BME280;12163;49.316;6.092;2023-05-03T04:40:45;100289.47;;;7.60;66.69
23953;BME280;12163;49.316;6.092;2023-05-03T04:43:12;100290.03;;;7.62;66.72
23953;BME280;12163;49.316;6.092;2023-05-03T04:45:39;100287.91;;;7.64;66.85
23953;BME280;12163;49.316;6.092;2023-05-03T04:48:06;100292.22;;;7.65;66.54
23953;BME280;12163;49.316;6.092;2023-05-03T04:50:33;100285.78;;;7.66;66.99
23953;BME280;12163;49.316;6.092;2023-05-03T04:53:00;100288.53;;;7.71;66.50
23953;BME280;12163;49.316;6.092;2023-05-03T04:55:27;100284.03;;;7.98;67.83
23953;BME280;12163;49.316;6.092;2023-05-03T04:57:54;100285.94;;;8.66;68.48
23953;BME280;12163;49.316;6.092;2023-05-03T05:00:21;100283.72;;;9.26;66.86
23953;BME280;12163;49.316;6.092;2023-05-03T05:02:49;100280.00;;;9.74;65.51
23953;BME280;12163;49.316;6.092;2023-05-03T05:05:16;100288.53;;;10.12;63.78
23953;BME280;12163;49.316;6.092;2023-05-03T05:07:45;100292.41;;;10.31;62.07
23953;BME280;12163;49.316;6.092;2023-05-03T05:10:12;100289.75;;;10.61;62.08
23953;BME280;12163;49.316;6.092;2023-05-03T05:12:39;100294.13;;;10.87;60.14
23953;BME280;12163;49.316;6.092;2023-05-03T05:15:07;100296.81;;;10.77;58.35
23953;BME280;12163;49.316;6.092;2023-05-03T05:17:34;100296.47;;;10.43;59.33
23953;BME280;12163;49.316;6.092;2023-05-03T05:20:01;100305.66;;;10.52;60.67
23953;BME280;12163;49.316;6.092;2023-05-03T05:22:28;100306.19;;;10.49;58.91
23953;BME280;12163;49.316;6.092;2023-05-03T05:24:54;100315.13;;;10.60;59.59
23953;BME280;12163;49.316;6.092;2023-05-03T05:27:22;100317.03;;;10.59;59.07
23953;BME280;12163;49.316;6.092;2023-05-03T05:29:49;100307.06;;;10.75;59.13
23953;BME280;12163;49.316;6.092;2023-05-03T05:32:15;100309.00;;;11.04;59.13
23953;BME280;12163;49.316;6.092;2023-05-03T05:34:42;100307.38;;;11.23;58.34
23953;BME280;12163;49.316;6.092;2023-05-03T05:37:11;100313.03;;;11.27;58.07
23953;BME280;12163;49.316;6.092;2023-05-03T05:39:37;100321.13;;;11.32;56.74
23953;BME280;12163;49.316;6.092;2023-05-03T05:42:04;100327.38;;;11.22;56.77
23953;BME280;12163;49.316;6.092;2023-05-03T05:44:31;100323.31;;;11.20;55.88
23953;BME280;12163;49.316;6.092;2023-05-03T05:46:57;100343.28;;;10.99;57.01
23953;BME280;12163;49.316;6.092;2023-05-03T05:49:24;100346.50;;;10.81;57.63
23953;BME280;12163;49.316;6.092;2023-05-03T05:51:51;100347.06;;;10.88;58.05
23953;BME280;12163;49.316;6.092;2023-05-03T05:54:17;100339.47;;;10.85;56.90
23953;BME280;12163;49.316;6.092;2023-05-03T05:56:44;100347.88;;;10.88;56.73
23953;BME280;12163;49.316;6.092;2023-05-03T05:59:11;100351.91;;;10.86;57.69
23953;BME280;12163;49.316;6.092;2023-05-03T06:01:37;100351.34;;;10.74;57.16
23953;BME280;12163;49.316;6.092;2023-05-03T06:04:07;100355.38;;;10.71;56.40
23953;BME280;12163;49.316;6.092;2023-05-03T06:06:33;100354.34;;;10.92;57.42
23953;BME280;12163;49.316;6.092;2023-05-03T06:09:00;100350.31;;;11.30;56.62
23953;BME280;12163;49.316;6.092;2023-05-03T06:11:42;100347.06;;;11.53;55.98
23953;BME280;12163;49.316;6.092;2023-05-03T06:14:08;100344.91;;;11.79;55.41
23953;BME280;12163;49.316;6.092;2023-05-03T06:16:36;100344.31;;;12.02;55.61
23953;BME280;12163;49.316;6.092;2023-05-03T06:19:03;100344.97;;;12.43;55.66
23953;BME280;12163;49.316;6.092;2023-05-03T06:21:30;100344.56;;;12.69;55.00
23953;BME280;12163;49.316;6.092;2023-05-03T06:23:57;100347.81;;;12.71;52.20
23953;BME280;12163;49.316;6.092;2023-05-03T06:26:23;100343.41;;;12.27;52.52
23953;BME280;12163;49.316;6.092;2023-05-03T06:28:50;100343.53;;;11.82;53.07
23953;BME280;12163;49.316;6.092;2023-05-03T06:31:17;100343.00;;;11.80;54.52
23953;BME280;12163;49.316;6.092;2023-05-03T06:33:44;100342.75;;;11.72;53.96
23953;BME280;12163;49.316;6.092;2023-05-03T06:36:11;100337.34;;;11.72;55.66
23953;BME280;12163;49.316;6.092;2023-05-03T06:38:38;100347.00;;;11.97;54.33
23953;BME280;12163;49.316;6.092;2023-05-03T06:41:06;100348.63;;;12.03;55.35
23953;BME280;12163;49.316;6.092;2023-05-03T06:43:32;100356.09;;;12.36;54.70
23953;BME280;12163;49.316;6.092;2023-05-03T06:45:59;100349.91;;;12.79;53.35
23953;BME280;12163;49.316;6.092;2023-05-03T06:48:26;100350.06;;;13.03;52.28
23953;BME280;12163;49.316;6.092;2023-05-03T06:50:53;100350.88;;;13.03;52.18
23953;BME280;12163;49.316;6.092;2023-05-03T06:53:20;100346.63;;;12.82;50.75
23953;BME280;12163;49.316;6.092;2023-05-03T06:55:47;100345.13;;;12.66;52.29
23953;BME280;12163;49.316;6.092;2023-05-03T06:58:13;100345.72;;;12.53;52.43
23953;BME280;12163;49.316;6.092;2023-05-03T07:00:41;100345.16;;;12.56;52.88
23953;BME280;12163;49.316;6.092;2023-05-03T07:03:07;100337.56;;;12.58;53.42
23953;BME280;12163;49.316;6.092;2023-05-03T07:05:34;100337.41;;;12.83;52.37
23953;BME280;12163;49.316;6.092;2023-05-03T07:08:01;100334.84;;;12.63;52.50
23953;BME280;12163;49.316;6.092;2023-05-03T07:10:28;100342.44;;;12.66;51.06
23953;BME280;12163;49.316;6.092;2023-05-03T07:12:57;100337.56;;;12.58;52.97
23953;BME280;12163;49.316;6.092;2023-05-03T07:15:23;100338.59;;;12.72;51.83
23953;BME280;12163;49.316;6.092;2023-05-03T07:17:50;100329.81;;;12.90;52.58
23953;BME280;12163;49.316;6.092;2023-05-03T07:20:16;100327.56;;;13.02;51.44
23953;BME280;12163;49.316;6.092;2023-05-03T07:22:43;100329.16;;;13.08;51.27
23953;BME280;12163;49.316;6.092;2023-05-03T07:25:10;100329.03;;;13.23;51.55
23953;BME280;12163;49.316;6.092;2023-05-03T07:27:39;100318.72;;;13.25;49.72
23953;BME280;12163;49.316;6.092;2023-05-03T07:30:06;100320.13;;;13.18;50.83
23953;BME280;12163;49.316;6.092;2023-05-03T07:32:33;100314.41;;;13.24;51.55
23953;BME280;12163;49.316;6.092;2023-05-03T07:35:00;100313.25;;;13.30;50.98
23953;BME280;12163;49.316;6.092;2023-05-03T07:37:26;100314.22;;;13.44;51.13
23953;BME280;12163;49.316;6.092;2023-05-03T07:39:53;100317.69;;;13.49;50.50
23953;BME280;12163;49.316;6.092;2023-05-03T07:42:20;100320.59;;;13.58;50.85
23953;BME280;12163;49.316;6.092;2023-05-03T07:44:46;100318.63;;;13.63;50.48
23953;BME280;12163;49.316;6.092;2023-05-03T07:47:13;100313.28;;;13.58;50.18
23953;BME280;12163;49.316;6.092;2023-05-03T07:49:39;100314.09;;;13.59;51.04
23953;BME280;12163;49.316;6.092;2023-05-03T07:52:06;100308.03;;;13.67;50.44
23953;BME280;12163;49.316;6.092;2023-05-03T07:54:32;100304.22;;;13.68;50.64
23953;BME280;12163;49.316;6.092;2023-05-03T07:56:59;100301.34;;;13.83;49.66
23953;BME280;12163;49.316;6.092;2023-05-03T07:59:26;100295.59;;;13.89;51.08
23953;BME280;12163;49.316;6.092;2023-05-03T08:01:53;100300.56;;;14.06;49.70
23953;BME280;12163;49.316;6.092;2023-05-03T08:04:19;100298.63;;;14.06;49.68
23953;BME280;12163;49.316;6.092;2023-05-03T08:06:47;100294.53;;;14.09;49.22
23953;BME280;12163;49.316;6.092;2023-05-03T08:09:14;100293.38;;;14.15;49.53
23953;BME280;12163;49.316;6.092;2023-05-03T08:11:41;100286.47;;;14.27;49.60
23953;BME280;12163;49.316;6.092;2023-05-03T08:14:09;100287.34;;;14.23;49.60
23953;BME280;12163;49.316;6.092;2023-05-03T08:16:36;100286.19;;;14.29;49.45
23953;BME280;12163;49.316;6.092;2023-05-03T08:19:03;100285.66;;;14.27;49.17
23953;BME280;12163;49.316;6.092;2023-05-03T08:21:30;100288.31;;;14.32;49.13
23953;BME280;12163;49.316;6.092;2023-05-03T08:23:58;100282.88;;;14.32;48.62
23953;BME280;12163;49.316;6.092;2023-05-03T08:26:26;100279.41;;;14.26;49.03
23953;BME280;12163;49.316;6.092;2023-05-03T08:28:54;100276.94;;;14.48;50.07
23953;BME280;12163;49.316;6.092;2023-05-03T08:31:20;100271.44;;;14.72;49.98
23953;BME280;12163;49.316;6.092;2023-05-03T08:33:47;100265.31;;;14.98;49.72
23953;BME280;12163;49.316;6.092;2023-05-03T08:36:14;100260.44;;;15.14;47.66
23953;BME280;12163;49.316;6.092;2023-05-03T08:38:41;100255.06;;;15.09;49.08
23953;BME280;12163;49.316;6.092;2023-05-03T08:41:20;100260.34;;;15.18;48.39
23953;BME280;12163;49.316;6.092;2023-05-03T08:43:52;100259.34;;;15.15;47.79
23953;BME280;12163;49.316;6.092;2023-05-03T08:46:19;100261.09;;;15.06;47.68
23953;BME280;12163;49.316;6.092;2023-05-03T08:48:50;100259.72;;;15.08;48.29
23953;BME280;12163;49.316;6.092;2023-05-03T08:51:19;100255.47;;;15.02;48.06
23953;BME280;12163;49.316;6.092;2023-05-03T08:53:46;100254.44;;;14.98;49.25
23953;BME280;12163;49.316;6.092;2023-05-03T08:56:23;100252.59;;;15.12;49.81
23953;BME280;12163;49.316;6.092;2023-05-03T08:58:51;100244.94;;;15.32;48.83
23953;BME280;12163;49.316;6.092;2023-05-03T09:01:18;100249.06;;;15.43;48.66
23953;BME280;12163;49.316;6.092;2023-05-03T09:03:50;100241.25;;;15.55;48.29
23953;BME280;12163;49.316;6.092;2023-05-03T09:06:22;100256.63;;;15.60;47.23
23953;BME280;12163;49.316;6.092;2023-05-03T09:08:51;100241.31;;;15.50;47.42
23953;BME280;12163;49.316;6.092;2023-05-03T09:11:29;100244.84;;;15.51;49.07
23953;BME280;12163;49.316;6.092;2023-05-03T09:14:16;100242.66;;;15.66;48.22
23953;BME280;12163;49.316;6.092;2023-05-03T09:16:44;100245.38;;;15.80;48.18
23953;BME280;12163;49.316;6.092;2023-05-03T09:19:13;100239.53;;;15.86;47.80
23953;BME280;12163;49.316;6.092;2023-05-03T09:21:42;100240.75;;;15.80;48.09
23953;BME280;12163;49.316;6.092;2023-05-03T09:24:20;100243.56;;;15.89;47.77
23953;BME280;12163;49.316;6.092;2023-05-03T09:26:49;100243.13;;;15.95;48.85
23953;BME280;12163;49.316;6.092;2023-05-03T09:29:30;100246.19;;;16.07;48.97
23953;BME280;12163;49.316;6.092;2023-05-03T09:31:58;100233.75;;;16.28;48.66
23953;BME280;12163;49.316;6.092;2023-05-03T09:34:26;100226.34;;;16.42;47.56
23953;BME280;12163;49.316;6.092;2023-05-03T09:36:53;100219.50;;;16.45;47.10
23953;BME280;12163;49.316;6.092;2023-05-03T09:39:20;100220.81;;;16.47;48.62
23953;BME280;12163;49.316;6.092;2023-05-03T09:41:46;100217.41;;;16.64;47.54
23953;BME280;12163;49.316;6.092;2023-05-03T09:44:13;100220.66;;;16.66;46.54
23953;BME280;12163;49.316;6.092;2023-05-03T09:47:01;100215.56;;;16.73;47.22
23953;BME280;12163;49.316;6.092;2023-05-03T09:49:27;100218.13;;;16.91;45.80
23953;BME280;12163;49.316;6.092;2023-05-03T09:51:55;100210.03;;;16.86;45.31
23953;BME280;12163;49.316;6.092;2023-05-03T09:54:24;100205.84;;;16.80;45.72
23953;BME280;12163;49.316;6.092;2023-05-03T09:56:52;100201.50;;;16.79;47.10
23953;BME280;12163;49.316;6.092;2023-05-03T09:59:20;100204.34;;;16.96;46.90
23953;BME280;12163;49.316;6.092;2023-05-03T10:01:47;100203.47;;;17.09;45.81
23953;BME280;12163;49.316;6.092;2023-05-03T10:04:16;100202.72;;;17.17;45.66
23953;BME280;12163;49.316;6.092;2023-05-03T10:06:47;100195.53;;;17.21;46.03
23953;BME280;12163;49.316;6.092;2023-05-03T10:09:17;100189.22;;;17.34;45.42
23953;BME280;12163;49.316;6.092;2023-05-03T10:11:51;100190.19;;;17.38;44.79
23953;BME280;12163;49.316;6.092;2023-05-03T10:14:21;100181.69;;;17.39;45.81
23953;BME280;12163;49.316;6.092;2023-05-03T10:16:52;100184.94;;;17.50;46.35
23953;BME280;12163;49.316;6.092;2023-05-03T10:22:03;100181.19;;;17.76;45.24
23953;BME280;12163;49.316;6.092;2023-05-03T10:24:35;100184.91;;;17.89;44.93
23953;BME280;12163;49.316;6.092;2023-05-03T10:27:05;100182.03;;;18.02;44.54
23953;BME280;12163;49.316;6.092;2023-05-03T10:32:32;100185.75;;;18.15;43.85
23953;BME280;12163;49.316;6.092;2023-05-03T10:35:06;100183.03;;;18.15;42.85
23953;BME280;12163;49.316;6.092;2023-05-03T10:37:35;100181.25;;;18.19;44.14
23953;BME280;12163;49.316;6.092;2023-05-03T10:40:19;100177.44;;;18.28;43.62
23953;BME280;12163;49.316;6.092;2023-05-03T10:42:53;100168.00;;;18.43;42.98
23953;BME280;12163;49.316;6.092;2023-05-03T10:45:27;100170.41;;;18.53;43.54
23953;BME280;12163;49.316;6.092;2023-05-03T10:50:39;100167.00;;;18.56;42.00
23953;BME280;12163;49.316;6.092;2023-05-03T10:53:05;100163.81;;;18.54;43.11
23953;BME280;12163;49.316;6.092;2023-05-03T10:55:32;100160.72;;;18.64;42.52
23953;BME280;12163;49.316;6.092;2023-05-03T10:58:00;100157.97;;;18.72;42.87
23953;BME280;12163;49.316;6.092;2023-05-03T11:00:38;100149.13;;;18.83;41.59
23953;BME280;12163;49.316;6.092;2023-05-03T11:05:54;100143.81;;;18.95;42.40
23953;BME280;12163;49.316;6.092;2023-05-03T11:08:23;100145.56;;;19.00;41.39
23953;BME280;12163;49.316;6.092;2023-05-03T11:10:57;100140.88;;;19.00;41.20
23953;BME280;12163;49.316;6.092;2023-05-03T11:13:27;100138.13;;;19.09;41.57
23953;BME280;12163;49.316;6.092;2023-05-03T11:15:55;100131.69;;;19.22;41.16
23953;BME280;12163;49.316;6.092;2023-05-03T11:18:25;100133.59;;;19.30;41.01
23953;BME280;12163;49.316;6.092;2023-05-03T11:20:52;100131.00;;;19.33;40.56
23953;BME280;12163;49.316;6.092;2023-05-03T11:23:24;100132.13;;;19.32;39.86
23953;BME280;12163;49.316;6.092;2023-05-03T11:25:52;100134.53;;;19.34;40.58
23953;BME280;12163;49.316;6.092;2023-05-03T11:28:18;100132.03;;;19.49;40.83
23953;BME280;12163;49.316;6.092;2023-05-03T11:30:45;100123.28;;;19.64;40.49
23953;BME280;12163;49.316;6.092;2023-05-03T11:33:12;100120.91;;;19.83;39.30
23953;BME280;12163;49.316;6.092;2023-05-03T11:35:39;100119.97;;;19.79;38.16
23953;BME280;12163;49.316;6.092;2023-05-03T11:38:08;100116.19;;;19.63;38.77
23953;BME280;12163;49.316;6.092;2023-05-03T11:40:35;100114.91;;;19.61;39.45
23953;BME280;12163;49.316;6.092;2023-05-03T11:43:02;100111.66;;;19.67;38.58
23953;BME280;12163;49.316;6.092;2023-05-03T11:45:44;100104.69;;;19.78;38.28
23953;BME280;12163;49.316;6.092;2023-05-03T11:48:12;100099.78;;;19.84;38.94
23953;BME280;12163;49.316;6.092;2023-05-03T11:50:47;100101.78;;;19.95;38.31
23953;BME280;12163;49.316;6.092;2023-05-03T11:53:14;100107.41;;;19.99;38.74
23953;BME280;12163;49.316;6.092;2023-05-03T11:55:45;100093.03;;;20.10;37.87
23953;BME280;12163;49.316;6.092;2023-05-03T12:00:48;100080.81;;;20.40;37.13
23953;BME280;12163;49.316;6.092;2023-05-03T12:03:37;100082.41;;;20.61;36.50
23953;BME280;12163;49.316;6.092;2023-05-03T12:06:04;100087.16;;;20.85;36.00
23953;BME280;12163;49.316;6.092;2023-05-03T12:08:32;100068.91;;;21.01;35.11
23953;BME280;12163;49.316;6.092;2023-05-03T12:11:02;100077.16;;;21.01;35.24
23953;BME280;12163;49.316;6.092;2023-05-03T12:13:36;100085.41;;;21.13;35.42
23953;BME280;12163;49.316;6.092;2023-05-03T12:16:07;100082.56;;;21.21;34.73
23953;BME280;12163;49.316;6.092;2023-05-03T12:21:10;100071.88;;;21.08;33.51
23953;BME280;12163;49.316;6.092;2023-05-03T12:23:40;100069.81;;;21.05;34.44
23953;BME280;12163;49.316;6.092;2023-05-03T12:26:07;100056.69;;;21.10;33.51
23953;BME280;12163;49.316;6.092;2023-05-03T12:28:35;100057.16;;;21.12;33.97
23953;BME280;12163;49.316;6.092;2023-05-03T12:31:02;100054.06;;;21.26;32.86
23953;BME280;12163;49.316;6.092;2023-05-03T12:33:30;100042.19;;;21.34;32.50
23953;BME280;12163;49.316;6.092;2023-05-03T12:35:59;100033.13;;;21.45;32.32
23953;BME280;12163;49.316;6.092;2023-05-03T12:38:29;100034.63;;;21.55;33.34
23953;BME280;12163;49.316;6.092;2023-05-03T12:40:56;100036.41;;;21.51;30.02
23953;BME280;12163;49.316;6.092;2023-05-03T12:43:25;100037.13;;;21.60;30.05
23953;BME280;12163;49.316;6.092;2023-05-03T12:45:51;100022.94;;;21.58;30.30
23953;BME280;12163;49.316;6.092;2023-05-03T12:48:38;100035.06;;;21.57;30.54
23953;BME280;12163;49.316;6.092;2023-05-03T12:51:05;100021.09;;;21.50;28.91
23953;BME280;12163;49.316;6.092;2023-05-03T12:53:45;100027.97;;;21.68;29.16
23953;BME280;12163;49.316;6.092;2023-05-03T12:56:13;100017.66;;;21.77;28.68
23953;BME280;12163;49.316;6.092;2023-05-03T12:58:40;100017.41;;;21.82;29.96
23953;BME280;12163;49.316;6.092;2023-05-03T13:01:27;100015.03;;;22.08;30.34
23953;BME280;12163;49.316;6.092;2023-05-03T13:03:57;100011.38;;;22.31;30.21
23953;BME280;12163;49.316;6.092;2023-05-03T13:06:44;99994.69;;;22.51;30.18
23953;BME280;12163;49.316;6.092;2023-05-03T13:09:12;99992.75;;;22.67;30.26
23953;BME280;12163;49.316;6.092;2023-05-03T13:11:46;99996.22;;;22.64;30.62
23953;BME280;12163;49.316;6.092;2023-05-03T13:14:15;99987.69;;;22.69;31.04
23953;BME280;12163;49.316;6.092;2023-05-03T13:16:42;99984.59;;;22.86;31.07
23953;BME280;12163;49.316;6.092;2023-05-03T13:19:12;99989.56;;;22.96;30.57
23953;BME280;12163;49.316;6.092;2023-05-03T13:21:38;99970.38;;;23.00;29.70